Monday, May 2, 2016, 7:11 PM EDT

KPHF, Williamsburg International Airport

Location: Newport News, VA, United States Lat: 37.133
Local Time: 7:11 PM EDT (23:11 GMT) Lon: -76.5
Time Zone: US/Eastern Elev: 42 ft

Show me the last for .
Show Decoded

2016-05-02 18:54 METAR KPHF 022254Z AUTO 20007KT 10SM FEW070 27/19 A2986 RMK AO2 LTG DSNT W-NE
                 SLP111 T02670189 =
2016-05-02 17:54 METAR KPHF 022154Z 19009KT 10SM CLR 28/19 A2985 RMK AO2 LTG DSNT W SLP106
                 T02780189 =
2016-05-02 16:54 METAR KPHF 022054Z 22008KT 10SM CLR 29/19 A2987 RMK AO2 SLP115 T02890194 56021 =
2016-05-02 15:54 METAR KPHF 021954Z 22007KT 10SM CLR 29/19 A2988 RMK AO2 SLP116 T02890194 =
2016-05-02 14:54 METAR KPHF 021854Z 22011KT 10SM CLR 29/20 A2991 RMK AO2 SLP127 T02890200 =
2016-05-02 13:54 METAR KPHF 021754Z 23010KT 10SM CLR 28/19 A2993 RMK AO2 SLP136 T02780194 10278
                 20206 56013 =
2016-05-02 12:54 METAR KPHF 021654Z 23010KT 10SM SCT027 27/20 A2995 RMK AO2 SLP140 T02670200 =
2016-05-02 12:42 METAR KPHF 021642Z 23009KT 10SM BKN025 26/20 A2995 RMK AO2 T02610200 =
2016-05-02 12:04 METAR KPHF 021604Z 24010KT 10SM SCT023 BKN030 26/20 A2997 RMK AO2 T02560200 =
2016-05-02 11:54 METAR KPHF 021554Z 26011KT 10SM BKN023 BKN030 26/20 A2997 RMK AO2 SLP149
                 T02560200 =
2016-05-02 11:29 METAR KPHF 021529Z 23011KT 10SM BKN020 25/20 A2998 RMK AO2 T02500200 =
2016-05-02 10:54 METAR KPHF 021454Z 23010KT 10SM SCT015 24/20 A2997 RMK AO2 SLP148 T02390200
                 50001 =
2016-05-02 10:27 METAR KPHF 021427Z 23011KT 10SM SCT014 23/20 A2997 RMK AO2 T02330200 =
2016-05-02 09:54 METAR KPHF 021354Z 25009KT 10SM BKN013 23/19 A2998 RMK AO2 SLP151 T02280194 =
2016-05-02 09:25 METAR KPHF 021325Z 22013KT 10SM OVC010 22/19 A2997 RMK AO2 T02220194 =
2016-05-02 09:06 METAR KPHF 021306Z 23012KT 10SM OVC009 22/19 A2998 RMK AO2 T02170189 =
2016-05-02 08:54 METAR KPHF 021254Z 24008KT 10SM OVC010 22/19 A2998 RMK AO2 CIG 008V013 SLP151
                 T02170194 =
2016-05-02 07:54 METAR KPHF 021154Z 24009KT 9SM BKN010 21/19 A2997 RMK AO2 SLP147 70012 T02060189
                 10206 20194 53003 =
2016-05-02 07:47 METAR KPHF 021147Z 24010KT 9SM BKN010 21/19 A2997 RMK AO2 T02060189 =
2016-05-02 07:35 METAR KPHF 021135Z 23009KT 8SM SCT010 20/19 A2996 RMK AO2 T02000189 =
2016-05-02 07:06 METAR KPHF 021106Z 22008KT 8SM BKN010 19/18 A2995 RMK AO2 T01940183 =
2016-05-02 06:54 METAR KPHF 021054Z 23009KT 8SM SCT009 19/18 A2995 RMK AO2 SLP142 T01940183 =
2016-05-02 06:31 METAR KPHF 021031Z 22008KT 8SM SCT009 19/18 A2994 RMK AO2 T01940183 =
2016-05-02 05:54 METAR KPHF 020954Z 21008KT 9SM OVC009 19/18 A2994 RMK AO2 CIG 007V011 SLP139
                 T01940183 =
2016-05-02 04:54 METAR KPHF 020854Z 22007KT 9SM OVC007 19/18 A2996 RMK AO2 CIG 006V012 SLP143
                 T01940183 56012 =
2016-05-02 03:54 METAR KPHF 020754Z 21006KT 9SM OVC007 19/18 A2996 RMK AO2 SLP144 T01940183 =
2016-05-02 03:16 METAR KPHF 020716Z 20009KT 9SM BKN008 19/18 A2996 RMK AO2 LTG DSNT NE T01940183
                 =
2016-05-02 03:02 METAR KPHF 020702Z 19009KT 10SM SCT008 SCT055 19/18 A2996 RMK AO2 T01940183 =
2016-05-02 02:54 METAR KPHF 020654Z 18010KT 10SM FEW046 SCT055 19/18 A2996 RMK AO2 LTG DSNT N
                 SLP144 T01940183 =
2016-05-02 01:54 METAR KPHF 020554Z 19008KT 10SM BKN038 BKN050 19/18 A2999 RMK AO2 SLP155
                 T01940183 10211 20194 56008 =
2016-05-02 00:54 METAR KPHF 020454Z 20005KT 10SM BKN050 20/18 A3000 RMK AO2 SLP158 T02000183
                 402280122 =
2016-05-01 23:54 METAR KPHF 020354Z 20006KT 10SM OVC045 21/18 A3000 RMK AO2 SLP158 T02060178 =
2016-05-01 22:54 METAR KPHF 020254Z 20006KT 10SM BKN041 20/18 A3001 RMK AO2 SLP163 T02000178
                 50011 =
2016-05-01 21:54 METAR KPHF 020154Z 21004KT 10SM OVC040 21/18 A3002 RMK AO2 SLP163 T02110183 =
2016-05-01 20:54 METAR KPHF 020054Z 21004KT 10SM OVC041 20/18 A3000 RMK AO2 SLP159 T02000178 =
2016-05-01 19:54 METAR KPHF 012354Z 22004KT 10SM OVC041 21/18 A2998 RMK AO2 SLP152 60007
                 T02110183 10228 20161 55006 =

Support USWX by starting your Amazon purchase here.